Mishawaka, IN

8:55 AM EDT on September 22, 2014 (GMT -0400)
Elkhart Municipal | Change Station
CLOSE
Current Station
Airport
Location: Elkhart,
Elevation: 778 ft
Nearby Weather Stations

Elev 778 ft 41.72 °N, 86.00 °W | Updated 1 hour ago

Partly Cloudy
Partly Cloudy
41 °F
Feels Like 41 °F
N
0
Wind Variable Wind from North

Today
High -- | Low -- °F
--% Chance of Precip.
Yesterday
High -- | Low -- °F
Precip. -- in
7:32 AM 7:41 PM
Waning Crescent, 3% visible
Pressure 30.22 in
Visibility 10.0 miles
Clouds Scattered Clouds 10000 ft
Dew Point 37 °F
Humidity 87%
Rainfall 0.00 in
Snow Depth Not available.
UV 0 out of 12
Pollen 4.90 out of 12
Ozone Good
Flu Activity Not available.
METAR KEKM 221150Z 00000KT 10SM SCT100 05/03 A3022

More Conditions Fewer Conditions

Pressure 30.22 in
Visibility 10.0 miles
Clouds Scattered Clouds 10000 ft
Dew Point 37 °F
Humidity 87%
Rainfall 0.00 in
Snow Depth Not available.
UV 0 out of 12
Pollen 4.90 out of 12
Ozone Good
Flu Activity Not available.
METAR KEKM 221150Z 00000KT 10SM SCT100 05/03 A3022

More Conditions Fewer Conditions

10-Day Weather Forecast

Almanac

Astronomy

Sep. 22, 2014 Rise Set
Actual Time 7:32 AM EDT 7:41 PM EDT
Civil Twilight 7:04 AM EDT 8:09 PM EDT
Nautical Twilight 6:31 AM EDT 8:41 PM EDT
Astronomical Twilight 5:58 AM EDT 9:14 PM EDT
Moon 5:59 AM EDT 6:49 PM EDT
Length of Visible Light 13h 05m
Length of Day
12h 09m
Tomorrow will be 2m 46s shorter.
Waning Crescent, 3% of the Moon is Illuminated
Today
Waning Crescent
Sep 24
New
Oct 1
First Quarter
Oct 8
Full
Oct 15
Last Quarter

Today's Extremes

State Highs State Lows

Community

WunderPhotos

Upload Photos

1,755,419 photos uploaded!

Nearby

Air Quality

  Air Quality AQ Index Pollutant
Yesterday Good
OZONE
Yesterday Good
PM2.5
Current Good
OZONE
Monday Good
OZONE
Monday Good
PM2.5

Snow Depth

Station Depth Elevation
No new snow has been reported.

Earthquake Activity

City Distance Mag. Time & Date
No recent earthquake activity has been reported nearby.
Minimum magnitude displayed is 2.5.

Coastal Water Temperatures

Place Temperature
No Stations Reporting

Nearby Weather Stations